sensor_id;sensor_type;location;lat;lon;timestamp;P1;durP1;ratioP1;P2;durP2;ratioP2
1370;SDS011;14306;49.942;11.570;2022-07-29T00:01:16;9.30;;;3.83;;
1370;SDS011;14306;49.942;11.570;2022-07-29T00:03:45;7.00;;;3.23;;
1370;SDS011;14306;49.942;11.570;2022-07-29T00:06:13;6.10;;;3.17;;
1370;SDS011;14306;49.942;11.570;2022-07-29T00:08:42;8.83;;;3.97;;
1370;SDS011;14306;49.942;11.570;2022-07-29T00:11:11;10.30;;;4.40;;
1370;SDS011;14306;49.942;11.570;2022-07-29T00:13:40;5.10;;;3.90;;
1370;SDS011;14306;49.942;11.570;2022-07-29T00:16:14;7.30;;;3.60;;
1370;SDS011;14306;49.942;11.570;2022-07-29T00:18:42;7.43;;;3.63;;
1370;SDS011;14306;49.942;11.570;2022-07-29T00:21:10;6.60;;;3.60;;
1370;SDS011;14306;49.942;11.570;2022-07-29T00:23:39;10.07;;;3.47;;
1370;SDS011;14306;49.942;11.570;2022-07-29T00:26:07;12.30;;;3.70;;
1370;SDS011;14306;49.942;11.570;2022-07-29T00:28:37;4.63;;;3.00;;
1370;SDS011;14306;49.942;11.570;2022-07-29T00:31:05;8.77;;;3.77;;
1370;SDS011;14306;49.942;11.570;2022-07-29T00:33:34;4.33;;;3.10;;
1370;SDS011;14306;49.942;11.570;2022-07-29T00:36:02;8.57;;;3.60;;
1370;SDS011;14306;49.942;11.570;2022-07-29T00:38:30;9.00;;;4.30;;
1370;SDS011;14306;49.942;11.570;2022-07-29T00:40:58;9.00;;;3.80;;
1370;SDS011;14306;49.942;11.570;2022-07-29T00:43:26;6.07;;;3.60;;
1370;SDS011;14306;49.942;11.570;2022-07-29T00:45:55;8.47;;;3.70;;
1370;SDS011;14306;49.942;11.570;2022-07-29T00:48:24;7.97;;;3.70;;
1370;SDS011;14306;49.942;11.570;2022-07-29T00:50:52;9.07;;;4.43;;
1370;SDS011;14306;49.942;11.570;2022-07-29T00:53:20;9.13;;;3.23;;
1370;SDS011;14306;49.942;11.570;2022-07-29T00:55:48;8.60;;;3.37;;
1370;SDS011;14306;49.942;11.570;2022-07-29T00:58:17;4.40;;;3.23;;
1370;SDS011;14306;49.942;11.570;2022-07-29T01:00:45;4.83;;;3.63;;
1370;SDS011;14306;49.942;11.570;2022-07-29T01:03:15;7.27;;;3.40;;
1370;SDS011;14306;49.942;11.570;2022-07-29T01:05:44;9.70;;;4.20;;
1370;SDS011;14306;49.942;11.570;2022-07-29T01:08:17;7.63;;;4.10;;
1370;SDS011;14306;49.942;11.570;2022-07-29T01:10:46;5.90;;;3.93;;
1370;SDS011;14306;49.942;11.570;2022-07-29T01:13:15;13.03;;;2.70;;
1370;SDS011;14306;49.942;11.570;2022-07-29T01:15:46;8.67;;;4.20;;
1370;SDS011;14306;49.942;11.570;2022-07-29T01:18:20;13.53;;;4.10;;
1370;SDS011;14306;49.942;11.570;2022-07-29T01:21:00;8.93;;;4.40;;
1370;SDS011;14306;49.942;11.570;2022-07-29T01:23:48;10.10;;;4.10;;
1370;SDS011;14306;49.942;11.570;2022-07-29T01:26:34;8.20;;;4.13;;
1370;SDS011;14306;49.942;11.570;2022-07-29T01:29:17;5.50;;;3.87;;
1370;SDS011;14306;49.942;11.570;2022-07-29T01:31:56;15.17;;;4.00;;
1370;SDS011;14306;49.942;11.570;2022-07-29T01:34:29;6.83;;;3.47;;
1370;SDS011;14306;49.942;11.570;2022-07-29T01:37:05;7.23;;;4.00;;
1370;SDS011;14306;49.942;11.570;2022-07-29T01:39:38;6.60;;;3.73;;
1370;SDS011;14306;49.942;11.570;2022-07-29T01:42:10;9.23;;;3.73;;
1370;SDS011;14306;49.942;11.570;2022-07-29T01:44:45;8.30;;;3.57;;
1370;SDS011;14306;49.942;11.570;2022-07-29T01:47:19;8.00;;;3.90;;
1370;SDS011;14306;49.942;11.570;2022-07-29T01:49:51;8.90;;;3.83;;
1370;SDS011;14306;49.942;11.570;2022-07-29T01:52:25;7.17;;;3.50;;
1370;SDS011;14306;49.942;11.570;2022-07-29T01:54:59;8.13;;;3.60;;
1370;SDS011;14306;49.942;11.570;2022-07-29T01:57:31;12.00;;;3.40;;
1370;SDS011;14306;49.942;11.570;2022-07-29T02:00:05;6.57;;;3.30;;
1370;SDS011;14306;49.942;11.570;2022-07-29T02:02:35;6.63;;;3.10;;
1370;SDS011;14306;49.942;11.570;2022-07-29T02:05:05;7.83;;;3.47;;
1370;SDS011;14306;49.942;11.570;2022-07-29T02:07:37;6.47;;;3.43;;
1370;SDS011;14306;49.942;11.570;2022-07-29T02:10:09;7.40;;;3.17;;
1370;SDS011;14306;49.942;11.570;2022-07-29T02:12:40;9.70;;;4.30;;
1370;SDS011;14306;49.942;11.570;2022-07-29T02:15:17;10.17;;;4.07;;
1370;SDS011;14306;49.942;11.570;2022-07-29T02:17:48;7.77;;;3.23;;
1370;SDS011;14306;49.942;11.570;2022-07-29T02:20:20;8.10;;;3.63;;
1370;SDS011;14306;49.942;11.570;2022-07-29T02:22:50;5.70;;;3.43;;
1370;SDS011;14306;49.942;11.570;2022-07-29T02:25:20;8.23;;;3.57;;
1370;SDS011;14306;49.942;11.570;2022-07-29T02:27:50;7.50;;;4.37;;
1370;SDS011;14306;49.942;11.570;2022-07-29T02:30:21;11.93;;;4.53;;
1370;SDS011;14306;49.942;11.570;2022-07-29T02:32:50;5.67;;;3.57;;
1370;SDS011;14306;49.942;11.570;2022-07-29T02:35:21;8.47;;;3.60;;
1370;SDS011;14306;49.942;11.570;2022-07-29T02:37:49;12.70;;;3.27;;
1370;SDS011;14306;49.942;11.570;2022-07-29T02:40:34;7.23;;;3.77;;
1370;SDS011;14306;49.942;11.570;2022-07-29T02:43:05;5.10;;;3.73;;
1370;SDS011;14306;49.942;11.570;2022-07-29T02:45:38;4.57;;;3.50;;
1370;SDS011;14306;49.942;11.570;2022-07-29T02:48:09;12.70;;;4.00;;
1370;SDS011;14306;49.942;11.570;2022-07-29T02:50:42;8.33;;;3.83;;
1370;SDS011;14306;49.942;11.570;2022-07-29T02:53:18;8.60;;;4.53;;
1370;SDS011;14306;49.942;11.570;2022-07-29T02:55:48;10.10;;;4.03;;
1370;SDS011;14306;49.942;11.570;2022-07-29T02:58:24;6.93;;;3.33;;
1370;SDS011;14306;49.942;11.570;2022-07-29T03:00:56;6.67;;;4.17;;
1370;SDS011;14306;49.942;11.570;2022-07-29T03:03:28;9.17;;;3.93;;
1370;SDS011;14306;49.942;11.570;2022-07-29T03:06:00;11.83;;;4.37;;
1370;SDS011;14306;49.942;11.570;2022-07-29T03:08:30;6.47;;;3.40;;
1370;SDS011;14306;49.942;11.570;2022-07-29T03:11:00;6.37;;;4.33;;
1370;SDS011;14306;49.942;11.570;2022-07-29T03:13:28;8.23;;;3.60;;
1370;SDS011;14306;49.942;11.570;2022-07-29T03:15:59;8.93;;;3.87;;
1370;SDS011;14306;49.942;11.570;2022-07-29T03:18:29;7.70;;;3.83;;
1370;SDS011;14306;49.942;11.570;2022-07-29T03:20:59;8.60;;;3.97;;
1370;SDS011;14306;49.942;11.570;2022-07-29T03:23:27;6.83;;;3.30;;
1370;SDS011;14306;49.942;11.570;2022-07-29T03:26:02;5.80;;;3.30;;
1370;SDS011;14306;49.942;11.570;2022-07-29T03:28:30;4.97;;;3.60;;
1370;SDS011;14306;49.942;11.570;2022-07-29T03:31:01;4.90;;;3.47;;
1370;SDS011;14306;49.942;11.570;2022-07-29T03:33:31;4.90;;;4.00;;
1370;SDS011;14306;49.942;11.570;2022-07-29T03:35:59;11.10;;;4.20;;
1370;SDS011;14306;49.942;11.570;2022-07-29T03:38:29;5.60;;;3.40;;
1370;SDS011;14306;49.942;11.570;2022-07-29T03:41:01;7.30;;;3.00;;
1370;SDS011;14306;49.942;11.570;2022-07-29T03:43:34;5.07;;;3.30;;
1370;SDS011;14306;49.942;11.570;2022-07-29T03:46:16;10.20;;;3.10;;
1370;SDS011;14306;49.942;11.570;2022-07-29T03:48:48;9.37;;;3.60;;
1370;SDS011;14306;49.942;11.570;2022-07-29T03:51:20;4.00;;;3.30;;
1370;SDS011;14306;49.942;11.570;2022-07-29T03:53:59;9.23;;;3.30;;
1370;SDS011;14306;49.942;11.570;2022-07-29T03:56:37;5.27;;;3.13;;
1370;SDS011;14306;49.942;11.570;2022-07-29T03:59:07;7.30;;;3.37;;
1370;SDS011;14306;49.942;11.570;2022-07-29T04:01:39;7.27;;;3.73;;
1370;SDS011;14306;49.942;11.570;2022-07-29T04:04:09;4.87;;;3.53;;
1370;SDS011;14306;49.942;11.570;2022-07-29T04:06:38;7.20;;;3.30;;
1370;SDS011;14306;49.942;11.570;2022-07-29T04:09:07;3.90;;;3.20;;
1370;SDS011;14306;49.942;11.570;2022-07-29T04:11:36;9.00;;;3.60;;
1370;SDS011;14306;49.942;11.570;2022-07-29T04:14:25;7.73;;;3.33;;
1370;SDS011;14306;49.942;11.570;2022-07-29T04:16:55;3.53;;;2.53;;
1370;SDS011;14306;49.942;11.570;2022-07-29T04:19:23;6.00;;;3.40;;
1370;SDS011;14306;49.942;11.570;2022-07-29T04:21:51;6.47;;;3.53;;
1370;SDS011;14306;49.942;11.570;2022-07-29T04:24:19;3.57;;;3.17;;
1370;SDS011;14306;49.942;11.570;2022-07-29T04:26:48;6.77;;;3.43;;
1370;SDS011;14306;49.942;11.570;2022-07-29T04:29:16;10.83;;;4.53;;
1370;SDS011;14306;49.942;11.570;2022-07-29T04:31:44;4.60;;;3.40;;
1370;SDS011;14306;49.942;11.570;2022-07-29T04:34:14;7.47;;;4.30;;
1370;SDS011;14306;49.942;11.570;2022-07-29T04:36:43;4.90;;;3.40;;
1370;SDS011;14306;49.942;11.570;2022-07-29T04:39:16;5.10;;;3.60;;
1370;SDS011;14306;49.942;11.570;2022-07-29T04:41:48;5.40;;;3.43;;
1370;SDS011;14306;49.942;11.570;2022-07-29T04:44:20;6.10;;;3.70;;
1370;SDS011;14306;49.942;11.570;2022-07-29T04:46:54;6.07;;;4.00;;
1370;SDS011;14306;49.942;11.570;2022-07-29T04:49:24;10.10;;;3.97;;
1370;SDS011;14306;49.942;11.570;2022-07-29T04:51:52;7.73;;;3.83;;
1370;SDS011;14306;49.942;11.570;2022-07-29T04:54:21;12.33;;;4.00;;
1370;SDS011;14306;49.942;11.570;2022-07-29T04:56:50;11.53;;;3.70;;
1370;SDS011;14306;49.942;11.570;2022-07-29T04:59:18;11.20;;;4.70;;
1370;SDS011;14306;49.942;11.570;2022-07-29T05:01:46;7.63;;;3.90;;
1370;SDS011;14306;49.942;11.570;2022-07-29T05:04:14;9.33;;;3.97;;
1370;SDS011;14306;49.942;11.570;2022-07-29T05:06:45;9.17;;;5.10;;
1370;SDS011;14306;49.942;11.570;2022-07-29T05:09:13;7.53;;;4.03;;
1370;SDS011;14306;49.942;11.570;2022-07-29T05:11:41;6.33;;;3.53;;
1370;SDS011;14306;49.942;11.570;2022-07-29T05:14:09;7.33;;;3.60;;
1370;SDS011;14306;49.942;11.570;2022-07-29T05:16:38;8.03;;;4.00;;
1370;SDS011;14306;49.942;11.570;2022-07-29T05:19:06;8.03;;;3.73;;
1370;SDS011;14306;49.942;11.570;2022-07-29T05:21:40;3.77;;;2.67;;
1370;SDS011;14306;49.942;11.570;2022-07-29T05:24:09;8.33;;;3.57;;
1370;SDS011;14306;49.942;11.570;2022-07-29T05:26:39;8.30;;;4.03;;
1370;SDS011;14306;49.942;11.570;2022-07-29T05:29:07;8.97;;;3.80;;
1370;SDS011;14306;49.942;11.570;2022-07-29T05:32:00;19.87;;;4.70;;
1370;SDS011;14306;49.942;11.570;2022-07-29T05:34:30;26.03;;;6.17;;
1370;SDS011;14306;49.942;11.570;2022-07-29T05:37:31;24.23;;;6.83;;
1370;SDS011;14306;49.942;11.570;2022-07-29T05:40:17;46.10;;;8.33;;
1370;SDS011;14306;49.942;11.570;2022-07-29T05:43:15;27.70;;;7.73;;
1370;SDS011;14306;49.942;11.570;2022-07-29T05:45:44;27.30;;;6.77;;
1370;SDS011;14306;49.942;11.570;2022-07-29T05:48:15;16.93;;;4.40;;
1370;SDS011;14306;49.942;11.570;2022-07-29T05:50:44;5.10;;;3.50;;
1370;SDS011;14306;49.942;11.570;2022-07-29T05:53:12;5.90;;;3.43;;
1370;SDS011;14306;49.942;11.570;2022-07-29T05:55:47;7.90;;;4.13;;
1370;SDS011;14306;49.942;11.570;2022-07-29T05:58:15;13.03;;;4.37;;
1370;SDS011;14306;49.942;11.570;2022-07-29T06:00:43;30.53;;;5.47;;
1370;SDS011;14306;49.942;11.570;2022-07-29T06:03:12;34.13;;;6.87;;
1370;SDS011;14306;49.942;11.570;2022-07-29T06:05:40;28.37;;;7.33;;
1370;SDS011;14306;49.942;11.570;2022-07-29T06:08:08;19.27;;;5.33;;
1370;SDS011;14306;49.942;11.570;2022-07-29T06:10:37;11.87;;;4.07;;
1370;SDS011;14306;49.942;11.570;2022-07-29T06:13:07;23.50;;;4.83;;
1370;SDS011;14306;49.942;11.570;2022-07-29T06:15:35;12.60;;;4.30;;
1370;SDS011;14306;49.942;11.570;2022-07-29T06:18:04;12.70;;;3.57;;
1370;SDS011;14306;49.942;11.570;2022-07-29T06:20:36;8.07;;;3.30;;
1370;SDS011;14306;49.942;11.570;2022-07-29T06:23:05;9.47;;;3.80;;
1370;SDS011;14306;49.942;11.570;2022-07-29T06:25:34;9.60;;;3.10;;
1370;SDS011;14306;49.942;11.570;2022-07-29T06:28:03;17.73;;;4.30;;
1370;SDS011;14306;49.942;11.570;2022-07-29T06:30:32;6.97;;;2.70;;
1370;SDS011;14306;49.942;11.570;2022-07-29T06:33:01;10.07;;;2.80;;
1370;SDS011;14306;49.942;11.570;2022-07-29T06:35:30;13.90;;;2.67;;
1370;SDS011;14306;49.942;11.570;2022-07-29T06:38:07;5.13;;;3.07;;
1370;SDS011;14306;49.942;11.570;2022-07-29T06:40:56;7.70;;;2.60;;
1370;SDS011;14306;49.942;11.570;2022-07-29T06:43:28;4.83;;;1.93;;
1370;SDS011;14306;49.942;11.570;2022-07-29T06:46:00;7.70;;;1.70;;
1370;SDS011;14306;49.942;11.570;2022-07-29T06:48:30;6.97;;;2.03;;
1370;SDS011;14306;49.942;11.570;2022-07-29T06:50:58;4.87;;;2.07;;
1370;SDS011;14306;49.942;11.570;2022-07-29T06:53:27;7.80;;;2.00;;
1370;SDS011;14306;49.942;11.570;2022-07-29T06:55:56;5.43;;;1.63;;
1370;SDS011;14306;49.942;11.570;2022-07-29T06:58:24;3.10;;;1.53;;
1370;SDS011;14306;49.942;11.570;2022-07-29T07:00:53;4.50;;;1.67;;
1370;SDS011;14306;49.942;11.570;2022-07-29T07:03:23;2.90;;;1.27;;
1370;SDS011;14306;49.942;11.570;2022-07-29T07:05:52;2.17;;;1.77;;
1370;SDS011;14306;49.942;11.570;2022-07-29T07:08:21;4.60;;;2.20;;
1370;SDS011;14306;49.942;11.570;2022-07-29T07:10:50;4.67;;;2.03;;
1370;SDS011;14306;49.942;11.570;2022-07-29T07:13:18;4.73;;;2.10;;
1370;SDS011;14306;49.942;11.570;2022-07-29T07:15:47;5.70;;;1.70;;
1370;SDS011;14306;49.942;11.570;2022-07-29T07:18:17;3.70;;;1.83;;
1370;SDS011;14306;49.942;11.570;2022-07-29T07:20:52;3.30;;;1.30;;
1370;SDS011;14306;49.942;11.570;2022-07-29T07:23:22;3.47;;;2.67;;
1370;SDS011;14306;49.942;11.570;2022-07-29T07:25:51;7.10;;;2.40;;
1370;SDS011;14306;49.942;11.570;2022-07-29T07:28:19;5.13;;;2.60;;
1370;SDS011;14306;49.942;11.570;2022-07-29T07:30:51;3.60;;;2.40;;
1370;SDS011;14306;49.942;11.570;2022-07-29T07:33:23;2.80;;;2.60;;
1370;SDS011;14306;49.942;11.570;2022-07-29T07:35:53;4.70;;;1.87;;
1370;SDS011;14306;49.942;11.570;2022-07-29T07:38:23;10.40;;;2.53;;
1370;SDS011;14306;49.942;11.570;2022-07-29T07:40:51;5.23;;;1.80;;
1370;SDS011;14306;49.942;11.570;2022-07-29T07:43:19;4.33;;;1.80;;
1370;SDS011;14306;49.942;11.570;2022-07-29T07:45:48;5.07;;;2.20;;
1370;SDS011;14306;49.942;11.570;2022-07-29T07:48:16;4.20;;;1.93;;
1370;SDS011;14306;49.942;11.570;2022-07-29T07:50:45;5.73;;;1.97;;
1370;SDS011;14306;49.942;11.570;2022-07-29T07:53:17;4.70;;;2.13;;
1370;SDS011;14306;49.942;11.570;2022-07-29T07:55:45;1.70;;;1.60;;
1370;SDS011;14306;49.942;11.570;2022-07-29T07:58:33;4.70;;;2.23;;
1370;SDS011;14306;49.942;11.570;2022-07-29T08:01:02;2.47;;;1.67;;
1370;SDS011;14306;49.942;11.570;2022-07-29T08:03:31;3.93;;;1.87;;
1370;SDS011;14306;49.942;11.570;2022-07-29T08:06:00;5.43;;;2.17;;
1370;SDS011;14306;49.942;11.570;2022-07-29T08:08:33;5.03;;;2.00;;
1370;SDS011;14306;49.942;11.570;2022-07-29T08:11:06;6.40;;;2.20;;
1370;SDS011;14306;49.942;11.570;2022-07-29T08:13:35;2.80;;;2.00;;
1370;SDS011;14306;49.942;11.570;2022-07-29T08:16:05;4.50;;;1.63;;
1370;SDS011;14306;49.942;11.570;2022-07-29T08:18:40;3.77;;;1.70;;
1370;SDS011;14306;49.942;11.570;2022-07-29T08:21:09;5.57;;;1.90;;
1370;SDS011;14306;49.942;11.570;2022-07-29T08:23:42;1.77;;;1.60;;
1370;SDS011;14306;49.942;11.570;2022-07-29T08:26:27;2.67;;;1.93;;
1370;SDS011;14306;49.942;11.570;2022-07-29T08:28:55;4.07;;;2.30;;
1370;SDS011;14306;49.942;11.570;2022-07-29T08:31:23;4.07;;;1.70;;
1370;SDS011;14306;49.942;11.570;2022-07-29T08:33:52;2.33;;;2.00;;
1370;SDS011;14306;49.942;11.570;2022-07-29T08:36:26;2.60;;;1.73;;
1370;SDS011;14306;49.942;11.570;2022-07-29T08:38:59;2.40;;;2.20;;
1370;SDS011;14306;49.942;11.570;2022-07-29T08:41:27;3.80;;;2.10;;
1370;SDS011;14306;49.942;11.570;2022-07-29T08:43:56;3.20;;;2.00;;
1370;SDS011;14306;49.942;11.570;2022-07-29T08:46:28;6.03;;;1.87;;
1370;SDS011;14306;49.942;11.570;2022-07-29T08:49:01;4.20;;;2.40;;
1370;SDS011;14306;49.942;11.570;2022-07-29T08:51:31;2.70;;;1.90;;
1370;SDS011;14306;49.942;11.570;2022-07-29T08:54:17;3.90;;;2.10;;
1370;SDS011;14306;49.942;11.570;2022-07-29T08:56:48;4.20;;;1.70;;
1370;SDS011;14306;49.942;11.570;2022-07-29T08:59:20;2.67;;;2.40;;
1370;SDS011;14306;49.942;11.570;2022-07-29T09:01:50;4.70;;;2.50;;
1370;SDS011;14306;49.942;11.570;2022-07-29T09:04:20;4.03;;;2.03;;
1370;SDS011;14306;49.942;11.570;2022-07-29T09:06:51;5.07;;;2.07;;
1370;SDS011;14306;49.942;11.570;2022-07-29T09:09:25;4.40;;;2.13;;
1370;SDS011;14306;49.942;11.570;2022-07-29T09:11:53;5.27;;;2.30;;
1370;SDS011;14306;49.942;11.570;2022-07-29T09:14:22;6.90;;;2.63;;
1370;SDS011;14306;49.942;11.570;2022-07-29T09:16:52;2.37;;;1.93;;
1370;SDS011;14306;49.942;11.570;2022-07-29T09:19:23;2.23;;;2.03;;
1370;SDS011;14306;49.942;11.570;2022-07-29T09:21:53;2.23;;;2.13;;
1370;SDS011;14306;49.942;11.570;2022-07-29T09:24:26;3.63;;;2.40;;
1370;SDS011;14306;49.942;11.570;2022-07-29T09:27:08;4.90;;;2.10;;
1370;SDS011;14306;49.942;11.570;2022-07-29T09:29:46;3.73;;;2.73;;
1370;SDS011;14306;49.942;11.570;2022-07-29T09:32:22;4.07;;;2.63;;
1370;SDS011;14306;49.942;11.570;2022-07-29T09:34:50;3.50;;;2.90;;
1370;SDS011;14306;49.942;11.570;2022-07-29T09:37:26;4.20;;;2.47;;
1370;SDS011;14306;49.942;11.570;2022-07-29T09:39:57;3.43;;;2.50;;
1370;SDS011;14306;49.942;11.570;2022-07-29T09:42:28;3.70;;;2.77;;
1370;SDS011;14306;49.942;11.570;2022-07-29T09:45:00;3.67;;;2.80;;
1370;SDS011;14306;49.942;11.570;2022-07-29T09:47:41;5.20;;;3.37;;
1370;SDS011;14306;49.942;11.570;2022-07-29T09:50:15;5.30;;;3.30;;
1370;SDS011;14306;49.942;11.570;2022-07-29T09:52:46;4.33;;;2.17;;
1370;SDS011;14306;49.942;11.570;2022-07-29T09:55:17;5.50;;;3.10;;
1370;SDS011;14306;49.942;11.570;2022-07-29T09:57:46;2.93;;;2.63;;
1370;SDS011;14306;49.942;11.570;2022-07-29T10:00:16;8.00;;;3.10;;
1370;SDS011;14306;49.942;11.570;2022-07-29T10:02:46;3.60;;;2.87;;
1370;SDS011;14306;49.942;11.570;2022-07-29T10:05:16;4.63;;;2.90;;
1370;SDS011;14306;49.942;11.570;2022-07-29T10:07:49;6.93;;;2.67;;
1370;SDS011;14306;49.942;11.570;2022-07-29T10:10:22;4.63;;;3.40;;
1370;SDS011;14306;49.942;11.570;2022-07-29T10:12:53;4.83;;;2.90;;
1370;SDS011;14306;49.942;11.570;2022-07-29T10:15:26;2.97;;;2.50;;
1370;SDS011;14306;49.942;11.570;2022-07-29T10:17:55;4.10;;;2.93;;
1370;SDS011;14306;49.942;11.570;2022-07-29T10:20:25;3.70;;;3.17;;
1370;SDS011;14306;49.942;11.570;2022-07-29T10:22:55;10.80;;;3.43;;
1370;SDS011;14306;49.942;11.570;2022-07-29T10:25:26;3.80;;;3.20;;
1370;SDS011;14306;49.942;11.570;2022-07-29T10:27:55;3.33;;;2.50;;
1370;SDS011;14306;49.942;11.570;2022-07-29T10:30:24;4.17;;;3.20;;
1370;SDS011;14306;49.942;11.570;2022-07-29T10:33:13;7.87;;;3.03;;
1370;SDS011;14306;49.942;11.570;2022-07-29T10:36:18;6.50;;;4.20;;
1370;SDS011;14306;49.942;11.570;2022-07-29T10:39:13;3.10;;;2.80;;
1370;SDS011;14306;49.942;11.570;2022-07-29T10:41:55;2.70;;;2.50;;
1370;SDS011;14306;49.942;11.570;2022-07-29T10:44:30;2.97;;;2.23;;
1370;SDS011;14306;49.942;11.570;2022-07-29T10:47:00;7.17;;;2.63;;
1370;SDS011;14306;49.942;11.570;2022-07-29T10:49:28;3.77;;;2.43;;
1370;SDS011;14306;49.942;11.570;2022-07-29T10:51:58;5.70;;;2.70;;
1370;SDS011;14306;49.942;11.570;2022-07-29T10:54:44;4.63;;;2.83;;
1370;SDS011;14306;49.942;11.570;2022-07-29T10:57:17;5.07;;;3.20;;
1370;SDS011;14306;49.942;11.570;2022-07-29T11:00:27;3.73;;;2.57;;
1370;SDS011;14306;49.942;11.570;2022-07-29T11:02:58;4.03;;;2.73;;
1370;SDS011;14306;49.942;11.570;2022-07-29T11:08:21;3.07;;;2.77;;
1370;SDS011;14306;49.942;11.570;2022-07-29T11:14:18;3.30;;;3.00;;
1370;SDS011;14306;49.942;11.570;2022-07-29T11:17:06;4.70;;;2.50;;
1370;SDS011;14306;49.942;11.570;2022-07-29T11:19:39;2.90;;;2.70;;
1370;SDS011;14306;49.942;11.570;2022-07-29T11:22:31;5.47;;;2.90;;
1370;SDS011;14306;49.942;11.570;2022-07-29T11:25:13;3.23;;;2.50;;
1370;SDS011;14306;49.942;11.570;2022-07-29T11:27:42;8.07;;;3.23;;
1370;SDS011;14306;49.942;11.570;2022-07-29T11:30:14;2.50;;;2.17;;
1370;SDS011;14306;49.942;11.570;2022-07-29T11:32:43;2.80;;;2.60;;
1370;SDS011;14306;49.942;11.570;2022-07-29T11:35:15;3.27;;;3.00;;
1370;SDS011;14306;49.942;11.570;2022-07-29T11:43:58;3.60;;;2.60;;
1370;SDS011;14306;49.942;11.570;2022-07-29T11:46:45;3.10;;;2.83;;
1370;SDS011;14306;49.942;11.570;2022-07-29T11:49:18;5.67;;;3.57;;
1370;SDS011;14306;49.942;11.570;2022-07-29T11:51:58;4.27;;;3.00;;
1370;SDS011;14306;49.942;11.570;2022-07-29T11:54:30;3.10;;;2.80;;
1370;SDS011;14306;49.942;11.570;2022-07-29T11:57:20;7.47;;;2.47;;
1370;SDS011;14306;49.942;11.570;2022-07-29T12:00:03;3.97;;;2.97;;
1370;SDS011;14306;49.942;11.570;2022-07-29T12:02:42;3.10;;;2.47;;
1370;SDS011;14306;49.942;11.570;2022-07-29T12:05:14;3.20;;;2.50;;
1370;SDS011;14306;49.942;11.570;2022-07-29T12:08:05;3.67;;;2.80;;
1370;SDS011;14306;49.942;11.570;2022-07-29T12:10:40;4.57;;;3.77;;
1370;SDS011;14306;49.942;11.570;2022-07-29T12:13:08;3.93;;;3.50;;
1370;SDS011;14306;49.942;11.570;2022-07-29T12:15:38;3.50;;;2.70;;
1370;SDS011;14306;49.942;11.570;2022-07-29T12:18:13;3.40;;;2.77;;
1370;SDS011;14306;49.942;11.570;2022-07-29T12:20:44;2.80;;;2.60;;
1370;SDS011;14306;49.942;11.570;2022-07-29T12:23:13;4.50;;;3.03;;
1370;SDS011;14306;49.942;11.570;2022-07-29T12:25:44;5.53;;;2.97;;
1370;SDS011;14306;49.942;11.570;2022-07-29T12:28:15;5.07;;;3.23;;
1370;SDS011;14306;49.942;11.570;2022-07-29T12:30:53;5.83;;;3.60;;
1370;SDS011;14306;49.942;11.570;2022-07-29T12:33:22;8.00;;;4.07;;
1370;SDS011;14306;49.942;11.570;2022-07-29T12:35:53;5.67;;;3.77;;
1370;SDS011;14306;49.942;11.570;2022-07-29T12:38:33;8.83;;;4.20;;
1370;SDS011;14306;49.942;11.570;2022-07-29T12:41:02;6.80;;;4.53;;
1370;SDS011;14306;49.942;11.570;2022-07-29T12:43:30;7.13;;;4.60;;
1370;SDS011;14306;49.942;11.570;2022-07-29T12:46:11;7.00;;;4.17;;
1370;SDS011;14306;49.942;11.570;2022-07-29T12:48:42;8.70;;;5.40;;
1370;SDS011;14306;49.942;11.570;2022-07-29T12:51:11;6.30;;;5.70;;
1370;SDS011;14306;49.942;11.570;2022-07-29T12:53:40;11.07;;;6.20;;
1370;SDS011;14306;49.942;11.570;2022-07-29T12:56:14;20.60;;;8.73;;
1370;SDS011;14306;49.942;11.570;2022-07-29T12:59:10;23.53;;;10.87;;
1370;SDS011;14306;49.942;11.570;2022-07-29T13:01:40;23.70;;;12.83;;
1370;SDS011;14306;49.942;11.570;2022-07-29T13:04:09;22.50;;;9.90;;
1370;SDS011;14306;49.942;11.570;2022-07-29T13:06:39;26.93;;;14.33;;
1370;SDS011;14306;49.942;11.570;2022-07-29T13:09:35;32.73;;;14.90;;
1370;SDS011;14306;49.942;11.570;2022-07-29T13:12:05;50.87;;;18.13;;
1370;SDS011;14306;49.942;11.570;2022-07-29T13:14:36;40.33;;;15.93;;
1370;SDS011;14306;49.942;11.570;2022-07-29T13:17:06;16.43;;;13.23;;
1370;SDS011;14306;49.942;11.570;2022-07-29T13:19:37;24.97;;;19.13;;
1370;SDS011;14306;49.942;11.570;2022-07-29T13:22:07;28.47;;;19.77;;
1370;SDS011;14306;49.942;11.570;2022-07-29T13:24:50;40.83;;;28.83;;
1370;SDS011;14306;49.942;11.570;2022-07-29T13:27:20;46.63;;;28.40;;
1370;SDS011;14306;49.942;11.570;2022-07-29T13:29:50;36.63;;;25.47;;
1370;SDS011;14306;49.942;11.570;2022-07-29T13:32:19;24.13;;;17.50;;
1370;SDS011;14306;49.942;11.570;2022-07-29T13:34:54;10.17;;;9.13;;
1370;SDS011;14306;49.942;11.570;2022-07-29T13:37:23;14.77;;;9.80;;
1370;SDS011;14306;49.942;11.570;2022-07-29T13:39:52;17.40;;;12.33;;
1370;SDS011;14306;49.942;11.570;2022-07-29T13:42:21;14.30;;;11.33;;
1370;SDS011;14306;49.942;11.570;2022-07-29T13:44:49;13.73;;;10.63;;
1370;SDS011;14306;49.942;11.570;2022-07-29T13:47:18;12.90;;;8.33;;
1370;SDS011;14306;49.942;11.570;2022-07-29T13:49:46;12.03;;;6.43;;
1370;SDS011;14306;49.942;11.570;2022-07-29T13:52:16;6.90;;;5.80;;
1370;SDS011;14306;49.942;11.570;2022-07-29T13:54:44;6.50;;;5.70;;
1370;SDS011;14306;49.942;11.570;2022-07-29T13:57:13;6.33;;;3.93;;
1370;SDS011;14306;49.942;11.570;2022-07-29T13:59:42;4.60;;;4.20;;
1370;SDS011;14306;49.942;11.570;2022-07-29T14:02:15;7.73;;;5.30;;
1370;SDS011;14306;49.942;11.570;2022-07-29T14:04:44;7.47;;;4.67;;
1370;SDS011;14306;49.942;11.570;2022-07-29T14:07:12;6.83;;;4.57;;
1370;SDS011;14306;49.942;11.570;2022-07-29T14:09:43;6.13;;;4.70;;
1370;SDS011;14306;49.942;11.570;2022-07-29T14:12:11;5.13;;;4.03;;
1370;SDS011;14306;49.942;11.570;2022-07-29T14:14:39;4.07;;;3.67;;
1370;SDS011;14306;49.942;11.570;2022-07-29T14:17:08;4.77;;;4.27;;
1370;SDS011;14306;49.942;11.570;2022-07-29T14:19:36;5.00;;;4.50;;
1370;SDS011;14306;49.942;11.570;2022-07-29T14:22:05;3.47;;;3.17;;
1370;SDS011;14306;49.942;11.570;2022-07-29T14:24:35;8.03;;;4.40;;
1370;SDS011;14306;49.942;11.570;2022-07-29T14:27:05;4.00;;;3.60;;
1370;SDS011;14306;49.942;11.570;2022-07-29T14:29:33;6.20;;;4.03;;
1370;SDS011;14306;49.942;11.570;2022-07-29T14:32:04;4.70;;;4.00;;
1370;SDS011;14306;49.942;11.570;2022-07-29T14:34:32;11.67;;;6.23;;
1370;SDS011;14306;49.942;11.570;2022-07-29T14:37:01;5.13;;;4.63;;
1370;SDS011;14306;49.942;11.570;2022-07-29T14:39:31;5.90;;;5.30;;
1370;SDS011;14306;49.942;11.570;2022-07-29T14:42:06;5.40;;;4.50;;
1370;SDS011;14306;49.942;11.570;2022-07-29T14:44:34;5.00;;;4.50;;
1370;SDS011;14306;49.942;11.570;2022-07-29T14:47:03;7.80;;;5.83;;
1370;SDS011;14306;49.942;11.570;2022-07-29T14:49:33;9.43;;;5.70;;
1370;SDS011;14306;49.942;11.570;2022-07-29T14:52:01;5.87;;;5.23;;
1370;SDS011;14306;49.942;11.570;2022-07-29T14:54:30;7.13;;;5.20;;
1370;SDS011;14306;49.942;11.570;2022-07-29T14:56:59;5.50;;;4.90;;
1370;SDS011;14306;49.942;11.570;2022-07-29T14:59:28;4.50;;;4.10;;
1370;SDS011;14306;49.942;11.570;2022-07-29T15:01:57;7.43;;;5.70;;
1370;SDS011;14306;49.942;11.570;2022-07-29T15:04:25;6.80;;;5.13;;
1370;SDS011;14306;49.942;11.570;2022-07-29T15:06:54;8.97;;;5.33;;
1370;SDS011;14306;49.942;11.570;2022-07-29T15:09:24;8.40;;;5.63;;
1370;SDS011;14306;49.942;11.570;2022-07-29T15:11:53;5.27;;;4.77;;
1370;SDS011;14306;49.942;11.570;2022-07-29T15:14:22;10.77;;;4.50;;
1370;SDS011;14306;49.942;11.570;2022-07-29T15:16:52;6.50;;;5.00;;
1370;SDS011;14306;49.942;11.570;2022-07-29T15:19:20;7.23;;;5.40;;
1370;SDS011;14306;49.942;11.570;2022-07-29T15:21:49;5.10;;;4.70;;
1370;SDS011;14306;49.942;11.570;2022-07-29T15:24:18;5.40;;;4.63;;
1370;SDS011;14306;49.942;11.570;2022-07-29T15:26:47;5.77;;;4.90;;